»·PEaware :: BADGR13 KIFP-KFLG

BADGR13 :: KIFP-KFLG

FLIGHT INFORMATION

Flight Status: Arrived
Operator: Unknown
More flights by this operator :: More flights under this callsign
Pilot: Abraham G. (22221)
Aircraft: BEECH AIRCRAFT T-6A TEXAN
(TEX2)
More flights by this aircraft type
Origin: KIFP Laughlin/Bullhead Intl
United States
Destination: KFLG Flagstaff Pulliam
United States
More flights between these airports :: More routes between these airports
Route: DRK FLG SHEFF
File this flight plan on PilotEdge
Remarks:
Altitude:
(Current/Filed)
17,000ft
Speed:
(Current/Filed)
254kts
Departed: 08-Jun-20 09:12 AM
Arrived: 08-Jun-20 10:19 AM
Distance/Time
Traveled:
141nm/1:07
Distance/Time
To Go:
Arrived

Flight Plot

Page will automatically refresh every two minutes.

Flight plan parsing failed; only flown route is shown


Map Options




Map Legend


Flown Route
Filed Route
Departure Airport
Arrival Airport
Navaid (VOR, NDB)
Fix

Horizontal Profiles

Position Reports

Time Latitude Longitude Heading Altitude Ground
Speed
08-Jun-20 08:45 35.158610 -114.556013 266 705ft 0kts
08-Jun-20 08:46 35.158610 -114.556013 266 705ft 0kts
08-Jun-20 08:47 35.158610 -114.556013 266 705ft 0kts
08-Jun-20 08:48 35.158610 -114.556013 266 705ft 0kts
08-Jun-20 08:49 35.158610 -114.556013 266 705ft 0kts
08-Jun-20 08:50 35.158610 -114.556013 266 705ft 0kts
08-Jun-20 08:52 35.158610 -114.556013 266 705ft 0kts
08-Jun-20 08:53 35.158610 -114.556013 266 705ft 0kts
08-Jun-20 08:54 35.158610 -114.556013 266 705ft 0kts
08-Jun-20 08:55 35.158610 -114.556013 266 705ft 0kts
08-Jun-20 08:56 35.158610 -114.556013 266 705ft 0kts
08-Jun-20 08:57 35.158610 -114.556013 266 705ft 0kts
08-Jun-20 08:58 35.158610 -114.556013 266 705ft 0kts
08-Jun-20 08:59 35.158610 -114.556013 266 705ft 0kts
08-Jun-20 09:00 35.158610 -114.556013 266 705ft 0kts
08-Jun-20 09:01 35.158610 -114.556013 266 705ft 0kts
08-Jun-20 09:02 35.158610 -114.556013 266 705ft 0kts
08-Jun-20 09:03 35.158610 -114.556013 266 705ft 0kts
08-Jun-20 09:04 35.158610 -114.556013 266 705ft 0kts
08-Jun-20 09:05 35.158610 -114.556013 266 705ft 0kts
08-Jun-20 09:06 35.158610 -114.556014 265 705ft 0kts
08-Jun-20 09:07 35.156816 -114.556426 176 705ft 11kts
08-Jun-20 09:08 35.154690 -114.557951 176 705ft 12kts
08-Jun-20 09:09 35.149997 -114.557604 177 705ft 18kts
08-Jun-20 09:10 35.145267 -114.557293 177 705ft 15kts
08-Jun-20 09:10 35.143197 -114.557442 246 705ft 0kts
08-Jun-20 09:12 35.149982 -114.559004 354 766ft 115kts
08-Jun-20 09:12 35.187151 -114.562643 3 2390ft 188kts
08-Jun-20 09:13 35.182810 -114.521539 173 4922ft 195kts
08-Jun-20 09:15 35.121965 -114.511819 173 8771ft 188kts
08-Jun-20 09:15 35.081208 -114.504659 175 12196ft 176kts
08-Jun-20 09:16 35.029772 -114.502430 177 15651ft 197kts
08-Jun-20 09:17 34.968678 -114.496485 174 17075ft 261kts
08-Jun-20 09:18 34.895813 -114.485952 171 17030ft 265kts
08-Jun-20 09:19 34.820626 -114.477555 177 16992ft 267kts
08-Jun-20 09:20 34.746964 -114.466541 141 17044ft 262kts
08-Jun-20 09:21 34.751966 -114.383738 65 17009ft 263kts
08-Jun-20 09:22 34.766916 -114.296509 92 17029ft 264kts
08-Jun-20 09:23 34.762800 -114.205330 93 16983ft 266kts
08-Jun-20 09:24 34.761543 -114.114118 90 16972ft 266kts
08-Jun-20 09:25 34.761398 -114.024540 90 17043ft 265kts
08-Jun-20 09:26 34.759628 -113.934318 91 16941ft 268kts
08-Jun-20 09:27 34.758374 -113.844219 89 16960ft 266kts
08-Jun-20 09:28 34.759439 -113.754545 89 17090ft 263kts
08-Jun-20 09:29 34.758444 -113.664453 88 16961ft 267kts
08-Jun-20 09:30 34.758508 -113.574219 91 16987ft 266kts
08-Jun-20 09:31 34.757577 -113.484079 90 16968ft 267kts
08-Jun-20 09:32 34.756922 -113.394064 91 16973ft 267kts
08-Jun-20 09:33 34.754113 -113.304316 93 17045ft 265kts
08-Jun-20 09:34 34.751347 -113.214211 94 17037ft 266kts
08-Jun-20 09:35 34.745225 -113.124438 96 17024ft 267kts
08-Jun-20 09:36 34.736463 -113.034937 96 17013ft 267kts
08-Jun-20 09:37 34.731331 -112.945082 91 17000ft 267kts
08-Jun-20 09:38 34.726616 -112.855019 95 16998ft 267kts
08-Jun-20 09:39 34.719289 -112.765451 92 17015ft 266kts
08-Jun-20 09:40 34.715323 -112.675166 92 16997ft 266kts
08-Jun-20 09:41 34.713905 -112.585032 92 16963ft 267kts
08-Jun-20 09:42 34.714932 -112.495557 73 16961ft 267kts
08-Jun-20 09:43 34.741603 -112.411719 71 16952ft 267kts
08-Jun-20 09:44 34.777426 -112.332924 54 16735ft 277kts
08-Jun-20 09:45 34.818311 -112.248011 65 14417ft 301kts
08-Jun-20 09:46 34.856585 -112.160502 61 11850ft 282kts
08-Jun-20 09:47 34.893333 -112.076541 58 9929ft 267kts
08-Jun-20 09:48 34.935375 -112.004480 60 10013ft 252kts
08-Jun-20 09:49 34.969659 -111.929551 60 9915ft 253kts
08-Jun-20 09:50 35.001018 -111.852718 70 10002ft 249kts
08-Jun-20 09:51 35.026125 -111.772525 69 9996ft 249kts
08-Jun-20 09:52 35.049026 -111.692432 71 9964ft 251kts
08-Jun-20 09:53 35.071132 -111.611836 71 9987ft 249kts
08-Jun-20 09:54 35.093198 -111.531408 71 9973ft 250kts
08-Jun-20 09:55 35.114133 -111.450193 72 9968ft 250kts
08-Jun-20 09:56 35.135977 -111.369617 71 9974ft 250kts
08-Jun-20 09:57 35.182036 -111.333095 321 9986ft 246kts
08-Jun-20 09:58 35.200014 -111.412645 281 9969ft 221kts
08-Jun-20 09:59 35.201035 -111.482439 249 9935ft 201kts
08-Jun-20 10:00 35.183140 -111.548923 253 8964ft 203kts
08-Jun-20 10:01 35.168946 -111.602042 246 8343ft 141kts
08-Jun-20 10:02 35.155000 -111.644946 248 7582ft 133kts
08-Jun-20 10:03 35.125080 -111.649341 141 9401ft 176kts
08-Jun-20 10:04 35.084192 -111.606937 140 10988ft 222kts
08-Jun-20 10:05 35.092214 -111.547607 38 11475ft 225kts
08-Jun-20 10:06 35.141770 -111.498457 39 11505ft 232kts
08-Jun-20 10:07 35.192178 -111.448236 39 11569ft 236kts
08-Jun-20 10:08 35.243244 -111.395521 39 11497ft 239kts
08-Jun-20 10:09 35.294147 -111.343144 19 11435ft 240kts
08-Jun-20 10:10 35.337826 -111.390942 268 11468ft 238kts
08-Jun-20 10:11 35.314655 -111.459654 231 11456ft 157kts
08-Jun-20 10:12 35.288581 -111.494170 227 10926ft 139kts
08-Jun-20 10:13 35.260734 -111.527471 224 10328ft 139kts
08-Jun-20 10:14 35.233228 -111.560603 224 9474ft 138kts
08-Jun-20 10:15 35.205910 -111.593078 225 8664ft 134kts
08-Jun-20 10:16 35.178966 -111.624376 226 7944ft 132kts
08-Jun-20 10:17 35.153087 -111.655544 222 7245ft 129kts
08-Jun-20 10:18 35.135854 -111.674488 312 7015ft 11kts
08-Jun-20 10:19 35.136362 -111.676321 310 7015ft 0kts
08-Jun-20 10:20 35.136362 -111.676321 310 7015ft 0kts
08-Jun-20 10:21 35.136362 -111.676321 310 7015ft 0kts
08-Jun-20 10:22 35.136362 -111.676321 310 7015ft 0kts
08-Jun-20 10:23 35.136362 -111.676321 310 7015ft 0kts
08-Jun-20 10:24 35.136362 -111.676321 310 7015ft 0kts
08-Jun-20 10:25 35.136362 -111.676321 310 7015ft 0kts
08-Jun-20 10:26 35.136362 -111.676321 310 7015ft 0kts
08-Jun-20 10:27 35.136362 -111.676321 310 7015ft 0kts
08-Jun-20 10:28 35.136362 -111.676321 310 7015ft 0kts
08-Jun-20 10:29 35.136362 -111.676321 310 7015ft 0kts
08-Jun-20 10:30 35.136362 -111.676321 310 7015ft 0kts
08-Jun-20 10:31 35.136362 -111.676321 310 7015ft 0kts
08-Jun-20 10:32 35.136362 -111.676321 310 7015ft 0kts

Navigation Log

Ident Type
Flight plan parsing failed, navigation log unavailable